KPRX/PRX METAR and TAF weather

Enter ICAO airport designator
Station Type Date Time Source
KPRX METAR 2022/11/26 08:56 UTC NOAA

KPRX 260856Z AUTO 08012KT 10SM OVC006 12/12 A3002 RMK AO2 SLP165 T01170117 56039


Station Type Date Time Source
KPRX Decoded METAR 2022/11/26 08:56 UTC NOAA

Paris / Cox Field, TX, United States (KPRX) 33-38N 095-27W
Nov 26, 2022 - 03:56 AM EST / 2022.11.26 0856 UTC
Wind: from the E (080 degrees) at 14 MPH (12 KT):0
Visibility: 10 mile(s):0
Sky conditions: overcast
Temperature: 53.1 F (11.7 C)
Dew Point: 53.1 F (11.7 C)
Relative Humidity: 100%
Pressure (altimeter): 30.02 in. Hg (1016 hPa)
Pressure tendency: 0.12 inches (3.9 hPa) lower than three hours ago
ob: KPRX 260856Z AUTO 08012KT 10SM OVC006 12/12 A3002 RMK AO2 SLP165 T01170117 56039
cycle: 9

Station Type Date Time Source
KPRX TAF UTC NOAA

Error!

Example: see airport list